sensor_id;sensor_type;location;lat;lon;timestamp;pressure;altitude;pressure_sealevel;temperature;humidity
49529;BME280;35423;37.320;-121.762;2023-02-13T00:00:30;99651.97;;;39.28;6.84
49529;BME280;35423;37.320;-121.762;2023-02-13T00:02:57;99653.47;;;39.15;6.94
49529;BME280;35423;37.320;-121.762;2023-02-13T00:05:24;99651.38;;;39.01;7.02
49529;BME280;35423;37.320;-121.762;2023-02-13T00:07:50;99649.63;;;38.89;6.94
49529;BME280;35423;37.320;-121.762;2023-02-13T00:10:17;99648.57;;;38.49;6.89
49529;BME280;35423;37.320;-121.762;2023-02-13T00:12:43;99651.66;;;38.45;7.10
49529;BME280;35423;37.320;-121.762;2023-02-13T00:15:09;99656.02;;;38.52;7.04
49529;BME280;35423;37.320;-121.762;2023-02-13T00:17:35;99657.74;;;38.09;7.10
49529;BME280;35423;37.320;-121.762;2023-02-13T00:20:00;99659.89;;;38.22;7.07
49529;BME280;35423;37.320;-121.762;2023-02-13T00:22:27;99660.31;;;37.87;6.90
49529;BME280;35423;37.320;-121.762;2023-02-13T00:24:55;99663.44;;;37.93;6.77
49529;BME280;35423;37.320;-121.762;2023-02-13T00:27:21;99663.58;;;38.01;6.74
49529;BME280;35423;37.320;-121.762;2023-02-13T00:29:46;99663.77;;;37.53;6.71
49529;BME280;35423;37.320;-121.762;2023-02-13T00:32:14;99664.27;;;37.38;6.82
49529;BME280;35423;37.320;-121.762;2023-02-13T00:34:42;99663.56;;;37.24;6.97
49529;BME280;35423;37.320;-121.762;2023-02-13T00:37:14;99666.00;;;37.26;6.87
49529;BME280;35423;37.320;-121.762;2023-02-13T00:39:42;99666.04;;;36.81;6.99
49529;BME280;35423;37.320;-121.762;2023-02-13T00:42:08;99667.72;;;36.87;7.09
49529;BME280;35423;37.320;-121.762;2023-02-13T00:44:39;99664.21;;;36.89;7.25
49529;BME280;35423;37.320;-121.762;2023-02-13T00:47:05;99663.53;;;36.44;7.48
49529;BME280;35423;37.320;-121.762;2023-02-13T00:49:31;99663.50;;;36.44;7.54
49529;BME280;35423;37.320;-121.762;2023-02-13T00:51:57;99665.15;;;36.37;7.63
49529;BME280;35423;37.320;-121.762;2023-02-13T00:54:25;99668.42;;;36.34;7.66
49529;BME280;35423;37.320;-121.762;2023-02-13T00:56:50;99666.14;;;36.47;7.86
49529;BME280;35423;37.320;-121.762;2023-02-13T00:59:17;99666.84;;;36.32;7.95
49529;BME280;35423;37.320;-121.762;2023-02-13T01:01:42;99668.34;;;35.76;8.06
49529;BME280;35423;37.320;-121.762;2023-02-13T01:04:10;99667.25;;;35.57;8.24
49529;BME280;35423;37.320;-121.762;2023-02-13T01:06:43;99663.68;;;35.55;8.50
49529;BME280;35423;37.320;-121.762;2023-02-13T01:09:20;99663.45;;;34.98;8.80
49529;BME280;35423;37.320;-121.762;2023-02-13T01:11:50;99659.31;;;34.47;9.01
49529;BME280;35423;37.320;-121.762;2023-02-13T01:14:17;99661.42;;;34.00;9.24
49529;BME280;35423;37.320;-121.762;2023-02-13T01:16:44;99659.60;;;33.95;9.51
49529;BME280;35423;37.320;-121.762;2023-02-13T01:19:10;99663.69;;;33.44;9.88
49529;BME280;35423;37.320;-121.762;2023-02-13T01:21:36;99663.31;;;32.98;10.20
49529;BME280;35423;37.320;-121.762;2023-02-13T01:24:04;99665.77;;;32.99;10.35
49529;BME280;35423;37.320;-121.762;2023-02-13T01:26:32;99666.89;;;32.16;10.71
49529;BME280;35423;37.320;-121.762;2023-02-13T01:28:59;99664.23;;;31.96;11.02
49529;BME280;35423;37.320;-121.762;2023-02-13T01:31:27;99663.80;;;31.59;11.26
49529;BME280;35423;37.320;-121.762;2023-02-13T01:33:58;99660.15;;;31.71;11.65
49529;BME280;35423;37.320;-121.762;2023-02-13T01:36:27;99660.71;;;31.33;11.91
49529;BME280;35423;37.320;-121.762;2023-02-13T01:38:53;99664.45;;;31.03;12.15
49529;BME280;35423;37.320;-121.762;2023-02-13T01:41:17;99664.15;;;30.46;12.38
49529;BME280;35423;37.320;-121.762;2023-02-13T01:43:45;99661.10;;;30.73;12.56
49529;BME280;35423;37.320;-121.762;2023-02-13T01:46:22;99666.36;;;30.40;12.74
49529;BME280;35423;37.320;-121.762;2023-02-13T01:48:45;99670.76;;;29.99;13.02
49529;BME280;35423;37.320;-121.762;2023-02-13T01:51:19;99674.65;;;30.06;13.24
49529;BME280;35423;37.320;-121.762;2023-02-13T01:53:44;99674.30;;;30.16;13.28
49529;BME280;35423;37.320;-121.762;2023-02-13T01:56:12;99675.98;;;30.24;13.36
49529;BME280;35423;37.320;-121.762;2023-02-13T01:58:37;99680.02;;;30.00;13.61
49529;BME280;35423;37.320;-121.762;2023-02-13T02:01:08;99685.11;;;29.80;13.75
49529;BME280;35423;37.320;-121.762;2023-02-13T02:03:35;99689.49;;;29.32;13.85
49529;BME280;35423;37.320;-121.762;2023-02-13T02:05:59;99689.50;;;29.10;14.18
49529;BME280;35423;37.320;-121.762;2023-02-13T02:08:24;99691.78;;;29.38;14.43
49529;BME280;35423;37.320;-121.762;2023-02-13T02:10:49;99691.66;;;28.67;14.45
49529;BME280;35423;37.320;-121.762;2023-02-13T02:13:17;99690.40;;;29.02;14.54
49529;BME280;35423;37.320;-121.762;2023-02-13T02:15:41;99695.34;;;28.85;14.53
49529;BME280;35423;37.320;-121.762;2023-02-13T02:18:12;99698.52;;;28.76;14.60
49529;BME280;35423;37.320;-121.762;2023-02-13T02:20:46;99696.42;;;28.59;14.79
49529;BME280;35423;37.320;-121.762;2023-02-13T02:32:56;99698.99;;;28.05;15.39
49529;BME280;35423;37.320;-121.762;2023-02-13T02:35:21;99697.94;;;27.96;15.42
49529;BME280;35423;37.320;-121.762;2023-02-13T02:37:49;99699.65;;;27.55;15.62
49529;BME280;35423;37.320;-121.762;2023-02-13T02:40:11;99705.88;;;27.52;15.86
49529;BME280;35423;37.320;-121.762;2023-02-13T02:42:37;99709.87;;;27.30;15.89
49529;BME280;35423;37.320;-121.762;2023-02-13T02:45:04;99706.06;;;27.15;15.96
49529;BME280;35423;37.320;-121.762;2023-02-13T02:47:25;99705.52;;;26.95;15.92
49529;BME280;35423;37.320;-121.762;2023-02-13T02:49:54;99701.94;;;26.57;15.93
49529;BME280;35423;37.320;-121.762;2023-02-13T02:52:19;99704.19;;;26.42;16.13
49529;BME280;35423;37.320;-121.762;2023-02-13T02:54:45;99705.04;;;26.70;16.10
49529;BME280;35423;37.320;-121.762;2023-02-13T02:57:12;99705.80;;;26.47;16.05
49529;BME280;35423;37.320;-121.762;2023-02-13T02:59:33;99711.06;;;26.40;16.18
49529;BME280;35423;37.320;-121.762;2023-02-13T03:02:02;99711.56;;;26.61;16.26
49529;BME280;35423;37.320;-121.762;2023-02-13T03:04:32;99714.95;;;26.55;16.39
49529;BME280;35423;37.320;-121.762;2023-02-13T03:07:00;99714.73;;;26.40;16.55
49529;BME280;35423;37.320;-121.762;2023-02-13T03:09:30;99712.53;;;26.22;16.63
49529;BME280;35423;37.320;-121.762;2023-02-13T03:11:52;99706.31;;;25.95;16.51
49529;BME280;35423;37.320;-121.762;2023-02-13T03:14:20;99708.57;;;25.74;16.66
49529;BME280;35423;37.320;-121.762;2023-02-13T03:16:42;99709.66;;;25.43;16.73
49529;BME280;35423;37.320;-121.762;2023-02-13T03:19:14;99709.39;;;25.22;16.87
49529;BME280;35423;37.320;-121.762;2023-02-13T03:21:43;99706.52;;;25.09;16.96
49529;BME280;35423;37.320;-121.762;2023-02-13T03:24:12;99704.00;;;24.96;16.99
49529;BME280;35423;37.320;-121.762;2023-02-13T03:26:43;99707.06;;;25.08;17.16
49529;BME280;35423;37.320;-121.762;2023-02-13T03:29:10;99705.61;;;25.23;17.26
49529;BME280;35423;37.320;-121.762;2023-02-13T03:31:35;99704.34;;;25.15;17.33
49529;BME280;35423;37.320;-121.762;2023-02-13T03:33:58;99704.64;;;25.04;17.31
49529;BME280;35423;37.320;-121.762;2023-02-13T03:36:39;99704.86;;;24.95;17.39
49529;BME280;35423;37.320;-121.762;2023-02-13T03:38:58;99701.23;;;24.80;17.49
49529;BME280;35423;37.320;-121.762;2023-02-13T03:41:26;99699.71;;;24.65;17.56
49529;BME280;35423;37.320;-121.762;2023-02-13T03:44:00;99695.49;;;24.51;17.75
49529;BME280;35423;37.320;-121.762;2023-02-13T03:46:14;99685.49;;;24.67;17.77
49529;BME280;35423;37.320;-121.762;2023-02-13T03:48:45;99684.20;;;24.60;17.77
49529;BME280;35423;37.320;-121.762;2023-02-13T03:51:15;99687.62;;;24.47;17.94
49529;BME280;35423;37.320;-121.762;2023-02-13T03:53:39;99685.46;;;24.52;17.97
49529;BME280;35423;37.320;-121.762;2023-02-13T03:56:15;99686.30;;;24.23;17.92
49529;BME280;35423;37.320;-121.762;2023-02-13T03:58:41;99684.71;;;23.88;18.08
49529;BME280;35423;37.320;-121.762;2023-02-13T04:01:08;99683.10;;;23.98;18.24
49529;BME280;35423;37.320;-121.762;2023-02-13T04:03:38;99680.95;;;23.73;18.34
49529;BME280;35423;37.320;-121.762;2023-02-13T04:06:05;99680.40;;;23.69;18.45
49529;BME280;35423;37.320;-121.762;2023-02-13T04:08:27;99677.09;;;23.46;18.54
49529;BME280;35423;37.320;-121.762;2023-02-13T04:11:07;99673.28;;;23.31;18.60
49529;BME280;35423;37.320;-121.762;2023-02-13T04:13:32;99679.29;;;23.27;18.70
49529;BME280;35423;37.320;-121.762;2023-02-13T04:15:56;99683.21;;;23.13;18.83
49529;BME280;35423;37.320;-121.762;2023-02-13T04:18:23;99682.05;;;23.05;18.92
49529;BME280;35423;37.320;-121.762;2023-02-13T04:20:48;99683.38;;;22.91;19.07
49529;BME280;35423;37.320;-121.762;2023-02-13T04:23:15;99684.52;;;23.06;19.09
49529;BME280;35423;37.320;-121.762;2023-02-13T04:25:44;99688.01;;;22.98;19.11
49529;BME280;35423;37.320;-121.762;2023-02-13T04:28:07;99686.99;;;22.68;19.21
49529;BME280;35423;37.320;-121.762;2023-02-13T04:30:36;99686.01;;;23.12;19.31
49529;BME280;35423;37.320;-121.762;2023-02-13T04:33:05;99683.55;;;22.75;19.40
49529;BME280;35423;37.320;-121.762;2023-02-13T04:35:34;99688.58;;;22.50;19.46
49529;BME280;35423;37.320;-121.762;2023-02-13T04:38:01;99687.35;;;22.64;19.54
49529;BME280;35423;37.320;-121.762;2023-02-13T04:40:31;99686.74;;;22.44;19.71
49529;BME280;35423;37.320;-121.762;2023-02-13T04:43:02;99685.37;;;22.58;19.77
49529;BME280;35423;37.320;-121.762;2023-02-13T04:45:29;99684.36;;;22.28;19.95
49529;BME280;35423;37.320;-121.762;2023-02-13T04:48:04;99682.50;;;22.41;19.89
49529;BME280;35423;37.320;-121.762;2023-02-13T04:50:33;99683.33;;;22.07;20.04
49529;BME280;35423;37.320;-121.762;2023-02-13T04:52:58;99682.40;;;22.11;20.12
49529;BME280;35423;37.320;-121.762;2023-02-13T04:55:24;99680.08;;;21.77;20.15
49529;BME280;35423;37.320;-121.762;2023-02-13T04:57:52;99680.79;;;21.58;20.26
49529;BME280;35423;37.320;-121.762;2023-02-13T05:00:19;99677.43;;;21.71;20.26
49529;BME280;35423;37.320;-121.762;2023-02-13T05:02:44;99678.92;;;21.63;20.39
49529;BME280;35423;37.320;-121.762;2023-02-13T05:05:10;99675.28;;;21.51;20.47
49529;BME280;35423;37.320;-121.762;2023-02-13T05:07:36;99672.59;;;21.62;20.51
49529;BME280;35423;37.320;-121.762;2023-02-13T05:10:02;99673.13;;;21.58;20.58
49529;BME280;35423;37.320;-121.762;2023-02-13T05:12:28;99672.54;;;21.51;20.65
49529;BME280;35423;37.320;-121.762;2023-02-13T05:15:02;99666.93;;;21.51;20.57
49529;BME280;35423;37.320;-121.762;2023-02-13T05:17:27;99671.77;;;21.19;20.59
49529;BME280;35423;37.320;-121.762;2023-02-13T05:19:53;99674.01;;;21.36;20.62
49529;BME280;35423;37.320;-121.762;2023-02-13T05:22:22;99669.68;;;21.24;20.73
49529;BME280;35423;37.320;-121.762;2023-02-13T05:24:46;99672.15;;;21.16;20.85
49529;BME280;35423;37.320;-121.762;2023-02-13T05:27:11;99672.13;;;21.24;20.92
49529;BME280;35423;37.320;-121.762;2023-02-13T05:29:38;99673.18;;;21.39;20.95
49529;BME280;35423;37.320;-121.762;2023-02-13T05:32:09;99672.97;;;20.87;21.04
49529;BME280;35423;37.320;-121.762;2023-02-13T05:34:43;99674.39;;;21.00;20.98
49529;BME280;35423;37.320;-121.762;2023-02-13T05:37:29;99667.06;;;20.97;21.07
49529;BME280;35423;37.320;-121.762;2023-02-13T05:39:58;99668.82;;;20.84;21.08
49529;BME280;35423;37.320;-121.762;2023-02-13T05:42:23;99673.62;;;20.50;21.10
49529;BME280;35423;37.320;-121.762;2023-02-13T05:44:52;99672.36;;;20.63;21.17
49529;BME280;35423;37.320;-121.762;2023-02-13T05:47:22;99672.36;;;20.38;21.17
49529;BME280;35423;37.320;-121.762;2023-02-13T05:49:58;99674.59;;;20.50;21.24
49529;BME280;35423;37.320;-121.762;2023-02-13T05:52:21;99669.63;;;20.41;21.30
49529;BME280;35423;37.320;-121.762;2023-02-13T05:54:51;99673.48;;;20.36;21.34
49529;BME280;35423;37.320;-121.762;2023-02-13T05:57:16;99669.48;;;20.29;21.39
49529;BME280;35423;37.320;-121.762;2023-02-13T05:59:44;99668.62;;;20.22;21.47
49529;BME280;35423;37.320;-121.762;2023-02-13T06:02:10;99668.75;;;20.15;21.51
49529;BME280;35423;37.320;-121.762;2023-02-13T06:04:38;99667.95;;;20.34;21.56
49529;BME280;35423;37.320;-121.762;2023-02-13T06:07:06;99672.12;;;19.95;21.68
49529;BME280;35423;37.320;-121.762;2023-02-13T06:09:32;99672.20;;;19.82;21.80
49529;BME280;35423;37.320;-121.762;2023-02-13T06:12:00;99670.23;;;19.78;21.88
49529;BME280;35423;37.320;-121.762;2023-02-13T06:14:29;99668.42;;;19.96;21.92
49529;BME280;35423;37.320;-121.762;2023-02-13T06:16:54;99663.72;;;19.89;21.93
49529;BME280;35423;37.320;-121.762;2023-02-13T06:19:21;99654.83;;;19.79;21.96
49529;BME280;35423;37.320;-121.762;2023-02-13T06:21:47;99649.05;;;19.71;21.98
49529;BME280;35423;37.320;-121.762;2023-02-13T06:24:13;99648.17;;;19.85;22.04
49529;BME280;35423;37.320;-121.762;2023-02-13T06:26:41;99642.61;;;19.80;22.08
49529;BME280;35423;37.320;-121.762;2023-02-13T06:29:13;99636.69;;;19.71;22.17
49529;BME280;35423;37.320;-121.762;2023-02-13T06:31:40;99630.88;;;19.36;22.32
49529;BME280;35423;37.320;-121.762;2023-02-13T06:34:10;99626.40;;;19.53;22.35
49529;BME280;35423;37.320;-121.762;2023-02-13T06:36:36;99626.51;;;19.43;22.44
49529;BME280;35423;37.320;-121.762;2023-02-13T06:39:03;99625.05;;;18.91;22.41
49529;BME280;35423;37.320;-121.762;2023-02-13T06:41:28;99627.09;;;19.13;22.48
49529;BME280;35423;37.320;-121.762;2023-02-13T06:43:54;99623.96;;;19.35;22.46
49529;BME280;35423;37.320;-121.762;2023-02-13T06:46:23;99624.79;;;19.26;22.52
49529;BME280;35423;37.320;-121.762;2023-02-13T06:48:54;99625.97;;;19.18;22.63
49529;BME280;35423;37.320;-121.762;2023-02-13T06:51:20;99627.73;;;19.09;22.64
49529;BME280;35423;37.320;-121.762;2023-02-13T06:53:45;99627.15;;;18.99;22.71
49529;BME280;35423;37.320;-121.762;2023-02-13T06:56:11;99627.20;;;18.91;22.74
49529;BME280;35423;37.320;-121.762;2023-02-13T06:58:47;99625.42;;;18.80;22.86
49529;BME280;35423;37.320;-121.762;2023-02-13T07:01:10;99621.70;;;18.98;22.93
49529;BME280;35423;37.320;-121.762;2023-02-13T07:03:36;99619.13;;;18.91;23.01
49529;BME280;35423;37.320;-121.762;2023-02-13T07:06:05;99616.72;;;18.59;23.07
49529;BME280;35423;37.320;-121.762;2023-02-13T07:08:30;99613.02;;;18.88;23.22
49529;BME280;35423;37.320;-121.762;2023-02-13T07:11:02;99615.51;;;18.69;23.28
49529;BME280;35423;37.320;-121.762;2023-02-13T07:13:30;99615.68;;;18.29;23.35
49529;BME280;35423;37.320;-121.762;2023-02-13T07:16:03;99611.69;;;18.03;23.31
49529;BME280;35423;37.320;-121.762;2023-02-13T07:18:30;99613.20;;;18.48;23.33
49529;BME280;35423;37.320;-121.762;2023-02-13T07:20:57;99612.40;;;18.40;23.41
49529;BME280;35423;37.320;-121.762;2023-02-13T07:23:22;99620.98;;;18.35;23.44
49529;BME280;35423;37.320;-121.762;2023-02-13T07:25:50;99624.62;;;18.30;23.53
49529;BME280;35423;37.320;-121.762;2023-02-13T07:28:16;99621.81;;;18.26;23.50
49529;BME280;35423;37.320;-121.762;2023-02-13T07:30:45;99618.51;;;18.14;23.57
49529;BME280;35423;37.320;-121.762;2023-02-13T07:33:11;99619.76;;;18.06;23.57
49529;BME280;35423;37.320;-121.762;2023-02-13T07:35:46;99632.95;;;17.98;23.68
49529;BME280;35423;37.320;-121.762;2023-02-13T07:38:06;99634.88;;;18.11;23.81
49529;BME280;35423;37.320;-121.762;2023-02-13T07:40:31;99633.19;;;17.65;23.99
49529;BME280;35423;37.320;-121.762;2023-02-13T07:43:02;99626.19;;;17.83;23.90
49529;BME280;35423;37.320;-121.762;2023-02-13T07:45:33;99629.01;;;17.48;24.06
49529;BME280;35423;37.320;-121.762;2023-02-13T07:48:05;99627.88;;;17.92;23.99
49529;BME280;35423;37.320;-121.762;2023-02-13T07:50:31;99626.15;;;17.63;24.05
49529;BME280;35423;37.320;-121.762;2023-02-13T07:53:01;99621.31;;;17.46;24.34
49529;BME280;35423;37.320;-121.762;2023-02-13T07:55:29;99621.05;;;17.41;24.30
49529;BME280;35423;37.320;-121.762;2023-02-13T07:57:55;99616.90;;;17.34;24.37
49529;BME280;35423;37.320;-121.762;2023-02-13T08:00:22;99613.87;;;17.30;24.34
49529;BME280;35423;37.320;-121.762;2023-02-13T08:02:47;99608.87;;;17.12;24.35
49529;BME280;35423;37.320;-121.762;2023-02-13T08:05:17;99604.09;;;17.32;24.38
49529;BME280;35423;37.320;-121.762;2023-02-13T08:07:48;99597.10;;;17.26;24.41
49529;BME280;35423;37.320;-121.762;2023-02-13T08:10:14;99597.19;;;17.20;24.55
49529;BME280;35423;37.320;-121.762;2023-02-13T08:12:40;99600.39;;;17.18;24.55
49529;BME280;35423;37.320;-121.762;2023-02-13T08:15:06;99600.71;;;17.41;24.61
49529;BME280;35423;37.320;-121.762;2023-02-13T08:17:30;99601.43;;;16.86;24.67
49529;BME280;35423;37.320;-121.762;2023-02-13T08:19:57;99599.50;;;17.40;24.81
49529;BME280;35423;37.320;-121.762;2023-02-13T08:22:24;99602.85;;;16.83;24.66
49529;BME280;35423;37.320;-121.762;2023-02-13T08:24:50;99605.94;;;17.08;24.64
49529;BME280;35423;37.320;-121.762;2023-02-13T08:27:20;99600.97;;;17.01;24.55
49529;BME280;35423;37.320;-121.762;2023-02-13T08:29:45;99596.36;;;16.97;24.49
49529;BME280;35423;37.320;-121.762;2023-02-13T08:32:10;99597.77;;;16.88;24.55
49529;BME280;35423;37.320;-121.762;2023-02-13T08:34:36;99601.37;;;16.83;24.56
49529;BME280;35423;37.320;-121.762;2023-02-13T08:37:02;99599.50;;;16.77;24.61
49529;BME280;35423;37.320;-121.762;2023-02-13T08:39:29;99590.58;;;16.63;24.69
49529;BME280;35423;37.320;-121.762;2023-02-13T08:41:56;99586.48;;;16.96;24.75
49529;BME280;35423;37.320;-121.762;2023-02-13T08:44:22;99579.19;;;16.47;24.72
49529;BME280;35423;37.320;-121.762;2023-02-13T08:46:47;99571.14;;;16.87;24.76
49529;BME280;35423;37.320;-121.762;2023-02-13T08:49:12;99569.18;;;16.38;24.84
49529;BME280;35423;37.320;-121.762;2023-02-13T08:51:42;99570.60;;;16.30;24.98
49529;BME280;35423;37.320;-121.762;2023-02-13T08:54:16;99567.48;;;16.32;24.93
49529;BME280;35423;37.320;-121.762;2023-02-13T08:56:42;99562.97;;;16.66;25.06
49529;BME280;35423;37.320;-121.762;2023-02-13T08:59:11;99556.24;;;16.09;25.07
49529;BME280;35423;37.320;-121.762;2023-02-13T09:01:43;99552.90;;;16.49;24.95
49529;BME280;35423;37.320;-121.762;2023-02-13T09:04:07;99551.17;;;16.27;24.79
49529;BME280;35423;37.320;-121.762;2023-02-13T09:06:33;99553.29;;;16.46;24.79
49529;BME280;35423;37.320;-121.762;2023-02-13T09:08:58;99551.76;;;16.18;24.93
49529;BME280;35423;37.320;-121.762;2023-02-13T09:11:24;99552.85;;;16.13;25.01
49529;BME280;35423;37.320;-121.762;2023-02-13T09:13:53;99548.14;;;15.98;25.22
49529;BME280;35423;37.320;-121.762;2023-02-13T09:16:17;99545.34;;;16.15;25.24
49529;BME280;35423;37.320;-121.762;2023-02-13T09:18:43;99538.69;;;15.85;25.40
49529;BME280;35423;37.320;-121.762;2023-02-13T09:21:11;99535.56;;;16.08;25.35
49529;BME280;35423;37.320;-121.762;2023-02-13T09:23:35;99533.98;;;16.09;25.36
49529;BME280;35423;37.320;-121.762;2023-02-13T09:25:59;99532.69;;;16.04;25.52
49529;BME280;35423;37.320;-121.762;2023-02-13T09:28:24;99534.93;;;16.02;25.58
49529;BME280;35423;37.320;-121.762;2023-02-13T09:30:50;99543.34;;;16.01;25.63
49529;BME280;35423;37.320;-121.762;2023-02-13T09:33:16;99536.18;;;15.94;25.87
49529;BME280;35423;37.320;-121.762;2023-02-13T09:35:43;99529.44;;;15.83;26.06
49529;BME280;35423;37.320;-121.762;2023-02-13T09:38:11;99526.77;;;15.58;26.02
49529;BME280;35423;37.320;-121.762;2023-02-13T09:40:40;99527.17;;;15.72;26.10
49529;BME280;35423;37.320;-121.762;2023-02-13T09:43:09;99523.62;;;15.66;26.18
49529;BME280;35423;37.320;-121.762;2023-02-13T09:45:31;99517.61;;;15.28;26.63
49529;BME280;35423;37.320;-121.762;2023-02-13T09:47:57;99514.60;;;15.99;26.62
49529;BME280;35423;37.320;-121.762;2023-02-13T09:50:28;99515.83;;;15.54;26.65
49529;BME280;35423;37.320;-121.762;2023-02-13T09:52:54;99518.62;;;15.78;26.64
49529;BME280;35423;37.320;-121.762;2023-02-13T09:55:18;99513.65;;;15.34;27.04
49529;BME280;35423;37.320;-121.762;2023-02-13T09:57:50;99514.75;;;15.53;27.01
49529;BME280;35423;37.320;-121.762;2023-02-13T10:00:17;99519.08;;;15.68;27.08
49529;BME280;35423;37.320;-121.762;2023-02-13T10:02:53;99519.15;;;15.64;27.18
49529;BME280;35423;37.320;-121.762;2023-02-13T10:05:15;99523.37;;;15.39;27.23
49529;BME280;35423;37.320;-121.762;2023-02-13T10:07:37;99538.87;;;15.36;27.35
49529;BME280;35423;37.320;-121.762;2023-02-13T10:10:10;99546.17;;;15.00;27.58
49529;BME280;35423;37.320;-121.762;2023-02-13T10:12:47;99550.84;;;15.42;27.65
49529;BME280;35423;37.320;-121.762;2023-02-13T10:15:16;99552.37;;;15.16;27.56
49529;BME280;35423;37.320;-121.762;2023-02-13T10:17:34;99562.73;;;15.15;27.40
49529;BME280;35423;37.320;-121.762;2023-02-13T10:19:59;99566.34;;;15.16;27.34
49529;BME280;35423;37.320;-121.762;2023-02-13T10:22:29;99568.97;;;15.16;27.34
49529;BME280;35423;37.320;-121.762;2023-02-13T10:24:53;99570.76;;;15.34;27.44
49529;BME280;35423;37.320;-121.762;2023-02-13T10:27:21;99571.67;;;15.06;27.52
49529;BME280;35423;37.320;-121.762;2023-02-13T10:29:49;99567.25;;;15.27;27.53
49529;BME280;35423;37.320;-121.762;2023-02-13T10:32:14;99566.21;;;15.23;27.54
49529;BME280;35423;37.320;-121.762;2023-02-13T10:34:42;99568.91;;;15.22;27.47
49529;BME280;35423;37.320;-121.762;2023-02-13T10:37:17;99561.21;;;15.20;27.53
49529;BME280;35423;37.320;-121.762;2023-02-13T10:39:44;99560.25;;;15.16;27.53
49529;BME280;35423;37.320;-121.762;2023-02-13T10:42:15;99563.24;;;15.13;27.54
49529;BME280;35423;37.320;-121.762;2023-02-13T10:44:43;99564.37;;;14.77;27.87
49529;BME280;35423;37.320;-121.762;2023-02-13T10:47:05;99562.89;;;14.81;28.13
49529;BME280;35423;37.320;-121.762;2023-02-13T10:49:38;99553.98;;;14.69;28.23
49529;BME280;35423;37.320;-121.762;2023-02-13T10:51:58;99554.72;;;14.46;28.05
49529;BME280;35423;37.320;-121.762;2023-02-13T10:57:04;99551.94;;;14.59;28.09
49529;BME280;35423;37.320;-121.762;2023-02-13T10:59:41;99551.12;;;14.52;28.17
49529;BME280;35423;37.320;-121.762;2023-02-13T11:01:59;99543.39;;;14.45;28.13
49529;BME280;35423;37.320;-121.762;2023-02-13T11:04:23;99544.27;;;14.67;28.11
49529;BME280;35423;37.320;-121.762;2023-02-13T11:06:56;99549.30;;;14.38;28.04
49529;BME280;35423;37.320;-121.762;2023-02-13T11:09:26;99545.42;;;14.81;28.02
49529;BME280;35423;37.320;-121.762;2023-02-13T11:11:54;99549.84;;;14.28;28.04
49529;BME280;35423;37.320;-121.762;2023-02-13T11:14:25;99545.86;;;14.23;28.10
49529;BME280;35423;37.320;-121.762;2023-02-13T11:16:53;99536.87;;;14.18;28.11
49529;BME280;35423;37.320;-121.762;2023-02-13T11:19:17;99537.31;;;14.10;28.21
49529;BME280;35423;37.320;-121.762;2023-02-13T11:21:40;99538.15;;;14.00;28.38
49529;BME280;35423;37.320;-121.762;2023-02-13T11:24:21;99533.01;;;14.44;28.44
49529;BME280;35423;37.320;-121.762;2023-02-13T11:26:52;99523.05;;;14.39;28.36
49529;BME280;35423;37.320;-121.762;2023-02-13T11:29:21;99527.56;;;14.32;28.48
49529;BME280;35423;37.320;-121.762;2023-02-13T11:31:38;99524.62;;;13.80;28.54
49529;BME280;35423;37.320;-121.762;2023-02-13T11:36:35;99523.78;;;13.99;28.48
49529;BME280;35423;37.320;-121.762;2023-02-13T11:39:05;99528.32;;;13.71;28.45
49529;BME280;35423;37.320;-121.762;2023-02-13T11:41:29;99520.68;;;14.10;28.66
49529;BME280;35423;37.320;-121.762;2023-02-13T11:43:58;99523.54;;;14.01;28.81
49529;BME280;35423;37.320;-121.762;2023-02-13T11:46:28;99526.92;;;13.93;28.98
49529;BME280;35423;37.320;-121.762;2023-02-13T11:49:16;99530.45;;;13.86;29.02
49529;BME280;35423;37.320;-121.762;2023-02-13T11:51:38;99528.11;;;13.74;29.26
49529;BME280;35423;37.320;-121.762;2023-02-13T11:54:00;99521.36;;;13.71;29.30
49529;BME280;35423;37.320;-121.762;2023-02-13T11:56:27;99516.54;;;13.67;29.48
49529;BME280;35423;37.320;-121.762;2023-02-13T11:59:01;99519.04;;;13.69;29.45
49529;BME280;35423;37.320;-121.762;2023-02-13T12:01:27;99524.12;;;13.73;29.45
49529;BME280;35423;37.320;-121.762;2023-02-13T12:04:01;99528.16;;;13.52;29.55
49529;BME280;35423;37.320;-121.762;2023-02-13T12:06:20;99529.13;;;13.71;29.78
49529;BME280;35423;37.320;-121.762;2023-02-13T12:08:47;99530.66;;;13.63;30.09
49529;BME280;35423;37.320;-121.762;2023-02-13T12:11:18;99529.73;;;13.59;30.19
49529;BME280;35423;37.320;-121.762;2023-02-13T12:13:37;99526.25;;;13.55;30.51
49529;BME280;35423;37.320;-121.762;2023-02-13T12:16:05;99523.82;;;13.75;30.81
49529;BME280;35423;37.320;-121.762;2023-02-13T12:18:30;99521.03;;;13.73;31.06
49529;BME280;35423;37.320;-121.762;2023-02-13T12:20:59;99512.85;;;13.47;31.14
49529;BME280;35423;37.320;-121.762;2023-02-13T12:23:29;99508.14;;;13.46;31.24
49529;BME280;35423;37.320;-121.762;2023-02-13T12:25:58;99504.66;;;13.40;31.70
49529;BME280;35423;37.320;-121.762;2023-02-13T12:28:15;99502.64;;;13.62;31.56
49529;BME280;35423;37.320;-121.762;2023-02-13T12:33:16;99501.48;;;13.41;31.49
49529;BME280;35423;37.320;-121.762;2023-02-13T12:35:44;99505.77;;;13.40;31.33
49529;BME280;35423;37.320;-121.762;2023-02-13T12:38:10;99508.83;;;13.64;31.24
49529;BME280;35423;37.320;-121.762;2023-02-13T12:40:45;99504.34;;;13.61;31.16
49529;BME280;35423;37.320;-121.762;2023-02-13T12:43:24;99508.32;;;13.47;31.34
49529;BME280;35423;37.320;-121.762;2023-02-13T12:45:39;99503.73;;;13.39;31.27
49529;BME280;35423;37.320;-121.762;2023-02-13T12:48:30;99501.89;;;13.27;31.37